sensor_id;sensor_type;location;lat;lon;timestamp;pressure;altitude;pressure_sealevel;temperature;humidity
1472;BME280;963;42.644;23.336;2023-03-03T00:02:27;94232.81;;;5.07;82.73
1472;BME280;963;42.644;23.336;2023-03-03T00:04:52;94224.97;;;5.27;81.52
1472;BME280;963;42.644;23.336;2023-03-03T00:07:18;94237.19;;;5.36;81.37
1472;BME280;963;42.644;23.336;2023-03-03T00:09:47;94223.91;;;5.61;79.97
1472;BME280;963;42.644;23.336;2023-03-03T00:14:44;94213.06;;;5.39;80.75
1472;BME280;963;42.644;23.336;2023-03-03T00:17:24;94209.88;;;5.66;79.72
1472;BME280;963;42.644;23.336;2023-03-03T00:19:50;94218.50;;;5.46;79.11
1472;BME280;963;42.644;23.336;2023-03-03T00:22:28;94217.44;;;5.47;80.21
1472;BME280;963;42.644;23.336;2023-03-03T00:24:57;94207.56;;;5.52;80.04
1472;BME280;963;42.644;23.336;2023-03-03T00:27:30;94215.50;;;5.56;79.72
1472;BME280;963;42.644;23.336;2023-03-03T00:29:57;94220.34;;;5.12;80.00
1472;BME280;963;42.644;23.336;2023-03-03T00:32:24;94236.13;;;5.49;80.43
1472;BME280;963;42.644;23.336;2023-03-03T00:34:52;94212.63;;;5.37;80.96
1472;BME280;963;42.644;23.336;2023-03-03T00:37:33;94200.38;;;5.49;79.38
1472;BME280;963;42.644;23.336;2023-03-03T00:40:23;94204.78;;;5.03;82.38
1472;BME280;963;42.644;23.336;2023-03-03T00:42:57;94202.91;;;5.58;80.43
1472;BME280;963;42.644;23.336;2023-03-03T00:45:40;94210.84;;;5.61;79.87
1472;BME280;963;42.644;23.336;2023-03-03T00:48:26;94189.47;;;5.80;78.95
1472;BME280;963;42.644;23.336;2023-03-03T00:50:54;94199.06;;;4.89;82.30
1472;BME280;963;42.644;23.336;2023-03-03T00:53:21;94183.03;;;5.20;82.05
1472;BME280;963;42.644;23.336;2023-03-03T00:55:49;94179.72;;;5.11;81.96
1472;BME280;963;42.644;23.336;2023-03-03T00:58:15;94180.50;;;5.57;80.49
1472;BME280;963;42.644;23.336;2023-03-03T01:00:41;94179.56;;;5.28;81.54
1472;BME280;963;42.644;23.336;2023-03-03T01:03:09;94173.72;;;5.31;81.26
1472;BME280;963;42.644;23.336;2023-03-03T01:05:36;94176.09;;;5.37;81.12
1472;BME280;963;42.644;23.336;2023-03-03T01:08:02;94150.75;;;5.58;78.73
1472;BME280;963;42.644;23.336;2023-03-03T01:10:30;94157.25;;;5.64;78.69
1472;BME280;963;42.644;23.336;2023-03-03T01:12:56;94162.03;;;5.62;79.47
1472;BME280;963;42.644;23.336;2023-03-03T01:15:22;94171.53;;;5.33;79.78
1472;BME280;963;42.644;23.336;2023-03-03T01:17:48;94154.13;;;5.25;80.11
1472;BME280;963;42.644;23.336;2023-03-03T01:20:15;94160.66;;;5.31;80.87
1472;BME280;963;42.644;23.336;2023-03-03T01:22:40;94177.34;;;5.18;80.74
1472;BME280;963;42.644;23.336;2023-03-03T01:25:07;94157.34;;;5.10;81.68
1472;BME280;963;42.644;23.336;2023-03-03T01:27:34;94163.94;;;5.28;80.61
1472;BME280;963;42.644;23.336;2023-03-03T01:30:00;94163.09;;;5.49;80.13
1472;BME280;963;42.644;23.336;2023-03-03T01:32:26;94152.69;;;5.61;79.52
1472;BME280;963;42.644;23.336;2023-03-03T01:34:53;94147.59;;;5.19;79.92
1472;BME280;963;42.644;23.336;2023-03-03T01:37:19;94159.38;;;5.38;80.59
1472;BME280;963;42.644;23.336;2023-03-03T01:39:52;94163.31;;;5.56;80.00
1472;BME280;963;42.644;23.336;2023-03-03T01:42:18;94138.47;;;5.71;79.30
1472;BME280;963;42.644;23.336;2023-03-03T01:44:44;94145.19;;;5.84;77.91
1472;BME280;963;42.644;23.336;2023-03-03T01:47:27;94151.56;;;5.95;78.06
1472;BME280;963;42.644;23.336;2023-03-03T01:50:00;94137.19;;;6.01;76.89
1472;BME280;963;42.644;23.336;2023-03-03T01:52:43;94140.25;;;6.03;77.03
1472;BME280;963;42.644;23.336;2023-03-03T01:55:33;94146.66;;;6.06;77.02
1472;BME280;963;42.644;23.336;2023-03-03T01:58:04;94140.53;;;5.65;77.87
1472;BME280;963;42.644;23.336;2023-03-03T02:00:33;94147.97;;;5.30;79.83
1472;BME280;963;42.644;23.336;2023-03-03T02:03:00;94150.44;;;5.26;80.94
1472;BME280;963;42.644;23.336;2023-03-03T02:05:26;94145.97;;;5.72;79.23
1472;BME280;963;42.644;23.336;2023-03-03T02:07:52;94151.50;;;5.58;78.70
1472;BME280;963;42.644;23.336;2023-03-03T02:10:19;94164.19;;;5.48;80.01
1472;BME280;963;42.644;23.336;2023-03-03T02:12:49;94150.03;;;5.37;79.23
1472;BME280;963;42.644;23.336;2023-03-03T02:15:17;94157.88;;;5.49;80.03
1472;BME280;963;42.644;23.336;2023-03-03T02:17:43;94148.56;;;5.60;79.09
1472;BME280;963;42.644;23.336;2023-03-03T02:20:19;94155.25;;;5.37;81.01
1472;BME280;963;42.644;23.336;2023-03-03T02:22:57;94152.25;;;5.59;79.82
1472;BME280;963;42.644;23.336;2023-03-03T02:28:06;94156.31;;;5.23;80.75
1472;BME280;963;42.644;23.336;2023-03-03T02:30:37;94159.28;;;4.80;82.44
1472;BME280;963;42.644;23.336;2023-03-03T02:33:03;94144.78;;;4.91;82.29
1472;BME280;963;42.644;23.336;2023-03-03T02:35:37;94162.47;;;5.19;81.92
1472;BME280;963;42.644;23.336;2023-03-03T02:38:10;94156.78;;;5.05;82.38
1472;BME280;963;42.644;23.336;2023-03-03T02:40:44;94156.22;;;4.99;81.62
1472;BME280;963;42.644;23.336;2023-03-03T02:43:15;94147.31;;;5.00;82.58
1472;BME280;963;42.644;23.336;2023-03-03T02:45:44;94165.19;;;4.89;82.95
1472;BME280;963;42.644;23.336;2023-03-03T02:48:09;94142.50;;;4.90;82.57
1472;BME280;963;42.644;23.336;2023-03-03T02:50:36;94141.66;;;4.98;82.52
1472;BME280;963;42.644;23.336;2023-03-03T02:53:02;94184.03;;;5.07;81.71
1472;BME280;963;42.644;23.336;2023-03-03T02:55:27;94126.81;;;4.78;83.21
1472;BME280;963;42.644;23.336;2023-03-03T02:57:52;94150.38;;;5.02;83.32
1472;BME280;963;42.644;23.336;2023-03-03T03:00:18;94143.22;;;5.11;82.75
1472;BME280;963;42.644;23.336;2023-03-03T03:02:45;94141.53;;;5.27;81.95
1472;BME280;963;42.644;23.336;2023-03-03T03:05:10;94140.56;;;5.32;81.84
1472;BME280;963;42.644;23.336;2023-03-03T03:07:36;94141.13;;;5.38;82.13
1472;BME280;963;42.644;23.336;2023-03-03T03:10:02;94139.59;;;5.37;81.03
1472;BME280;963;42.644;23.336;2023-03-03T03:12:27;94159.88;;;5.64;80.88
1472;BME280;963;42.644;23.336;2023-03-03T03:14:53;94134.97;;;5.79;79.95
1472;BME280;963;42.644;23.336;2023-03-03T03:17:18;94134.00;;;5.71;80.03
1472;BME280;963;42.644;23.336;2023-03-03T03:19:44;94147.28;;;5.90;79.45
1472;BME280;963;42.644;23.336;2023-03-03T03:22:09;94135.56;;;5.97;79.10
1472;BME280;963;42.644;23.336;2023-03-03T03:24:34;94140.75;;;5.72;79.54
1472;BME280;963;42.644;23.336;2023-03-03T03:27:00;94126.72;;;5.77;79.59
1472;BME280;963;42.644;23.336;2023-03-03T03:29:25;94128.31;;;5.57;80.35
1472;BME280;963;42.644;23.336;2023-03-03T03:31:51;94134.38;;;5.37;80.97
1472;BME280;963;42.644;23.336;2023-03-03T03:34:16;94126.78;;;5.56;80.57
1472;BME280;963;42.644;23.336;2023-03-03T03:36:41;94143.97;;;5.57;80.69
1472;BME280;963;42.644;23.336;2023-03-03T03:39:07;94126.53;;;5.24;82.69
1472;BME280;963;42.644;23.336;2023-03-03T03:41:33;94125.50;;;5.50;81.55
1472;BME280;963;42.644;23.336;2023-03-03T03:43:58;94130.41;;;5.18;83.33
1472;BME280;963;42.644;23.336;2023-03-03T03:46:23;94125.66;;;5.20;82.55
1472;BME280;963;42.644;23.336;2023-03-03T03:48:49;94136.66;;;5.38;82.23
1472;BME280;963;42.644;23.336;2023-03-03T03:51:14;94130.22;;;5.23;83.34
1472;BME280;963;42.644;23.336;2023-03-03T03:53:40;94118.66;;;5.12;84.06
1472;BME280;963;42.644;23.336;2023-03-03T03:56:05;94121.97;;;5.21;83.01
1472;BME280;963;42.644;23.336;2023-03-03T03:58:31;94116.00;;;5.21;82.78
1472;BME280;963;42.644;23.336;2023-03-03T04:01:04;94106.03;;;4.90;83.88
1472;BME280;963;42.644;23.336;2023-03-03T04:03:30;94117.03;;;5.08;84.18
1472;BME280;963;42.644;23.336;2023-03-03T04:05:55;94112.06;;;5.15;83.71
1472;BME280;963;42.644;23.336;2023-03-03T04:08:21;94111.25;;;4.90;84.13
1472;BME280;963;42.644;23.336;2023-03-03T04:10:46;94128.22;;;5.08;83.64
1472;BME280;963;42.644;23.336;2023-03-03T04:13:11;94127.13;;;5.09;84.35
1472;BME280;963;42.644;23.336;2023-03-03T04:15:37;94127.19;;;5.21;84.14
1472;BME280;963;42.644;23.336;2023-03-03T04:18:02;94098.53;;;5.33;83.35
1472;BME280;963;42.644;23.336;2023-03-03T04:20:28;94105.56;;;5.21;83.60
1472;BME280;963;42.644;23.336;2023-03-03T04:22:54;94117.63;;;5.25;83.55
1472;BME280;963;42.644;23.336;2023-03-03T04:25:21;94088.00;;;4.97;85.07
1472;BME280;963;42.644;23.336;2023-03-03T04:27:46;94122.47;;;5.15;84.49
1472;BME280;963;42.644;23.336;2023-03-03T04:30:13;94099.84;;;5.40;83.62
1472;BME280;963;42.644;23.336;2023-03-03T04:32:39;94090.44;;;5.14;83.57
1472;BME280;963;42.644;23.336;2023-03-03T04:35:05;94102.97;;;5.33;83.07
1472;BME280;963;42.644;23.336;2023-03-03T04:37:30;94105.59;;;5.45;82.98
1472;BME280;963;42.644;23.336;2023-03-03T04:39:56;94124.00;;;5.16;84.12
1472;BME280;963;42.644;23.336;2023-03-03T04:42:21;94108.75;;;4.93;84.72
1472;BME280;963;42.644;23.336;2023-03-03T04:44:46;94106.41;;;5.13;85.17
1472;BME280;963;42.644;23.336;2023-03-03T04:47:12;94111.09;;;5.19;85.21
1472;BME280;963;42.644;23.336;2023-03-03T04:49:37;94098.31;;;5.39;83.98
1472;BME280;963;42.644;23.336;2023-03-03T04:52:03;94098.44;;;5.54;82.91
1472;BME280;963;42.644;23.336;2023-03-03T04:54:28;94117.22;;;5.36;84.25
1472;BME280;963;42.644;23.336;2023-03-03T04:56:54;94103.09;;;5.49;83.24
1472;BME280;963;42.644;23.336;2023-03-03T04:59:19;94107.66;;;5.40;83.72
1472;BME280;963;42.644;23.336;2023-03-03T05:01:44;94107.78;;;5.43;82.57
1472;BME280;963;42.644;23.336;2023-03-03T05:04:10;94109.22;;;5.08;84.66
1472;BME280;963;42.644;23.336;2023-03-03T05:06:36;94112.22;;;5.43;83.64
1472;BME280;963;42.644;23.336;2023-03-03T05:09:01;94106.59;;;5.65;82.69
1472;BME280;963;42.644;23.336;2023-03-03T05:11:27;94120.97;;;5.71;82.26
1472;BME280;963;42.644;23.336;2023-03-03T05:13:52;94110.41;;;5.80;82.02
1472;BME280;963;42.644;23.336;2023-03-03T05:16:18;94113.03;;;5.68;82.50
1472;BME280;963;42.644;23.336;2023-03-03T05:18:43;94107.88;;;5.47;83.05
1472;BME280;963;42.644;23.336;2023-03-03T05:21:10;94113.13;;;5.59;82.11
1472;BME280;963;42.644;23.336;2023-03-03T05:23:36;94124.13;;;5.64;82.96
1472;BME280;963;42.644;23.336;2023-03-03T05:26:01;94122.38;;;5.69;83.14
1472;BME280;963;42.644;23.336;2023-03-03T05:28:27;94100.72;;;5.68;83.42
1472;BME280;963;42.644;23.336;2023-03-03T05:30:52;94112.13;;;5.88;82.32
1472;BME280;963;42.644;23.336;2023-03-03T05:33:18;94129.69;;;6.00;82.10
1472;BME280;963;42.644;23.336;2023-03-03T05:35:43;94119.34;;;6.03;82.25
1472;BME280;963;42.644;23.336;2023-03-03T05:38:09;94123.25;;;6.09;81.77
1472;BME280;963;42.644;23.336;2023-03-03T05:40:35;94121.94;;;6.15;81.42
1472;BME280;963;42.644;23.336;2023-03-03T05:43:00;94112.78;;;5.85;82.76
1472;BME280;963;42.644;23.336;2023-03-03T05:45:26;94108.09;;;5.54;83.65
1472;BME280;963;42.644;23.336;2023-03-03T05:47:52;94124.00;;;5.73;82.33
1472;BME280;963;42.644;23.336;2023-03-03T05:50:19;94125.97;;;5.76;82.95
1472;BME280;963;42.644;23.336;2023-03-03T05:52:49;94129.09;;;5.82;82.53
1472;BME280;963;42.644;23.336;2023-03-03T05:55:14;94134.47;;;5.98;81.59
1472;BME280;963;42.644;23.336;2023-03-03T05:57:40;94128.19;;;5.99;80.72
1472;BME280;963;42.644;23.336;2023-03-03T06:00:06;94110.75;;;5.66;82.65
1472;BME280;963;42.644;23.336;2023-03-03T06:02:33;94124.69;;;6.07;81.18
1472;BME280;963;42.644;23.336;2023-03-03T06:04:58;94124.16;;;6.01;80.96
1472;BME280;963;42.644;23.336;2023-03-03T06:07:24;94125.78;;;6.06;80.85
1472;BME280;963;42.644;23.336;2023-03-03T06:09:49;94128.78;;;6.20;80.24
1472;BME280;963;42.644;23.336;2023-03-03T06:12:14;94142.53;;;6.05;80.06
1472;BME280;963;42.644;23.336;2023-03-03T06:14:40;94125.78;;;6.06;80.30
1472;BME280;963;42.644;23.336;2023-03-03T06:17:05;94131.44;;;6.08;80.73
1472;BME280;963;42.644;23.336;2023-03-03T06:19:31;94122.25;;;5.77;80.83
1472;BME280;963;42.644;23.336;2023-03-03T06:21:57;94138.13;;;5.84;82.33
1472;BME280;963;42.644;23.336;2023-03-03T06:24:22;94135.78;;;6.16;80.37
1472;BME280;963;42.644;23.336;2023-03-03T06:26:50;94136.19;;;6.18;80.08
1472;BME280;963;42.644;23.336;2023-03-03T06:29:16;94141.66;;;6.01;80.33
1472;BME280;963;42.644;23.336;2023-03-03T06:31:42;94132.75;;;6.02;80.44
1472;BME280;963;42.644;23.336;2023-03-03T06:34:08;94146.34;;;5.38;83.45
1472;BME280;963;42.644;23.336;2023-03-03T06:36:34;94129.88;;;5.82;81.49
1472;BME280;963;42.644;23.336;2023-03-03T06:38:59;94138.81;;;6.06;80.68
1472;BME280;963;42.644;23.336;2023-03-03T06:41:25;94126.44;;;6.03;80.81
1472;BME280;963;42.644;23.336;2023-03-03T06:43:50;94140.22;;;6.15;79.86
1472;BME280;963;42.644;23.336;2023-03-03T06:46:16;94158.81;;;6.26;79.76
1472;BME280;963;42.644;23.336;2023-03-03T06:48:42;94146.63;;;6.18;80.06
1472;BME280;963;42.644;23.336;2023-03-03T06:53:55;94153.13;;;5.87;82.53
1472;BME280;963;42.644;23.336;2023-03-03T06:56:24;94159.56;;;6.26;81.08
1472;BME280;963;42.644;23.336;2023-03-03T06:58:55;94141.97;;;6.36;80.78
1472;BME280;963;42.644;23.336;2023-03-03T07:01:22;94147.28;;;5.90;81.90
1472;BME280;963;42.644;23.336;2023-03-03T07:03:47;94152.63;;;6.06;80.54
1472;BME280;963;42.644;23.336;2023-03-03T07:06:23;94150.13;;;6.34;79.61
1472;BME280;963;42.644;23.336;2023-03-03T07:08:51;94142.91;;;6.43;79.15
1472;BME280;963;42.644;23.336;2023-03-03T07:11:22;94171.06;;;6.62;78.57
1472;BME280;963;42.644;23.336;2023-03-03T07:13:52;94148.38;;;6.38;79.20
1472;BME280;963;42.644;23.336;2023-03-03T07:16:19;94148.34;;;6.50;79.15
1472;BME280;963;42.644;23.336;2023-03-03T07:18:53;94150.91;;;6.63;78.85
1472;BME280;963;42.644;23.336;2023-03-03T07:23:51;94150.00;;;6.83;78.21
1472;BME280;963;42.644;23.336;2023-03-03T07:26:25;94148.34;;;6.50;78.72
1472;BME280;963;42.644;23.336;2023-03-03T07:28:59;94149.34;;;6.86;78.33
1472;BME280;963;42.644;23.336;2023-03-03T07:31:36;94143.63;;;6.96;77.91
1472;BME280;963;42.644;23.336;2023-03-03T07:34:30;94144.44;;;6.84;78.69
1472;BME280;963;42.644;23.336;2023-03-03T07:37:03;94149.59;;;6.69;78.94
1472;BME280;963;42.644;23.336;2023-03-03T07:39:35;94149.16;;;6.67;78.88
1472;BME280;963;42.644;23.336;2023-03-03T07:44:38;94133.91;;;7.09;77.19
1472;BME280;963;42.644;23.336;2023-03-03T07:49:46;94142.03;;;7.19;76.42
1472;BME280;963;42.644;23.336;2023-03-03T07:54:54;94140.09;;;7.04;76.08
1472;BME280;963;42.644;23.336;2023-03-03T07:57:37;94121.97;;;6.96;75.60
1472;BME280;963;42.644;23.336;2023-03-03T08:02:48;94123.78;;;7.07;76.13
1472;BME280;963;42.644;23.336;2023-03-03T08:05:30;94126.75;;;7.21;76.13
1472;BME280;963;42.644;23.336;2023-03-03T08:13:23;94132.59;;;7.31;75.75
1472;BME280;963;42.644;23.336;2023-03-03T08:18:45;94120.06;;;7.08;76.05
1472;BME280;963;42.644;23.336;2023-03-03T08:21:12;94143.81;;;7.31;76.04
1472;BME280;963;42.644;23.336;2023-03-03T08:23:38;94123.63;;;7.32;76.15
1472;BME280;963;42.644;23.336;2023-03-03T08:26:04;94128.19;;;7.35;75.74
1472;BME280;963;42.644;23.336;2023-03-03T08:28:30;94137.75;;;7.43;73.75
1472;BME280;963;42.644;23.336;2023-03-03T08:30:56;94127.63;;;7.41;74.56
1472;BME280;963;42.644;23.336;2023-03-03T08:33:21;94122.72;;;7.40;74.94
1472;BME280;963;42.644;23.336;2023-03-03T08:35:47;94110.81;;;7.42;75.38
1472;BME280;963;42.644;23.336;2023-03-03T08:38:14;94115.22;;;7.54;74.84
1472;BME280;963;42.644;23.336;2023-03-03T08:40:40;94134.91;;;7.48;74.85
1472;BME280;963;42.644;23.336;2023-03-03T08:43:06;94119.09;;;7.29;75.01
1472;BME280;963;42.644;23.336;2023-03-03T08:45:32;94120.72;;;7.49;74.82
1472;BME280;963;42.644;23.336;2023-03-03T08:47:58;94119.41;;;7.43;75.94
1472;BME280;963;42.644;23.336;2023-03-03T08:50:25;94122.03;;;7.43;75.88
1472;BME280;963;42.644;23.336;2023-03-03T08:52:51;94111.56;;;7.43;76.21
1472;BME280;963;42.644;23.336;2023-03-03T08:55:16;94124.00;;;7.62;75.28
1472;BME280;963;42.644;23.336;2023-03-03T08:57:42;94119.69;;;7.69;74.99
1472;BME280;963;42.644;23.336;2023-03-03T09:00:11;94123.34;;;7.65;75.53
1472;BME280;963;42.644;23.336;2023-03-03T09:02:37;94120.13;;;7.71;74.99
1472;BME280;963;42.644;23.336;2023-03-03T09:05:04;94122.56;;;7.80;75.44
1472;BME280;963;42.644;23.336;2023-03-03T09:07:29;94136.50;;;7.68;74.68
1472;BME280;963;42.644;23.336;2023-03-03T09:09:55;94122.06;;;7.74;74.52
1472;BME280;963;42.644;23.336;2023-03-03T09:12:32;94109.56;;;7.68;75.38
1472;BME280;963;42.644;23.336;2023-03-03T09:15:37;94118.50;;;7.35;76.08
1472;BME280;963;42.644;23.336;2023-03-03T09:18:21;94119.69;;;7.69;76.26
1472;BME280;963;42.644;23.336;2023-03-03T09:20:52;94108.72;;;7.64;74.77
1472;BME280;963;42.644;23.336;2023-03-03T09:23:42;94131.97;;;7.81;74.39
1472;BME280;963;42.644;23.336;2023-03-03T09:27:06;94129.25;;;7.77;75.09
1472;BME280;963;42.644;23.336;2023-03-03T09:31:41;94122.56;;;7.64;74.66
1472;BME280;963;42.644;23.336;2023-03-03T09:37:21;94128.97;;;7.35;75.13
1472;BME280;963;42.644;23.336;2023-03-03T09:39:50;94120.78;;;7.37;76.01
1472;BME280;963;42.644;23.336;2023-03-03T09:58:26;94117.22;;;8.08;72.24
1472;BME280;963;42.644;23.336;2023-03-03T10:06:35;94112.13;;;8.15;72.36
1472;BME280;963;42.644;23.336;2023-03-03T10:14:40;94113.75;;;8.35;71.57
1472;BME280;963;42.644;23.336;2023-03-03T10:20:43;94116.25;;;8.32;71.18
1472;BME280;963;42.644;23.336;2023-03-03T10:25:52;94111.94;;;8.39;73.11
1472;BME280;963;42.644;23.336;2023-03-03T10:36:54;94085.81;;;8.43;71.28
1472;BME280;963;42.644;23.336;2023-03-03T10:41:57;94094.78;;;8.42;70.25
1472;BME280;963;42.644;23.336;2023-03-03T10:47:17;94096.44;;;8.50;71.30
1472;BME280;963;42.644;23.336;2023-03-03T10:52:54;94080.38;;;8.52;72.27
1472;BME280;963;42.644;23.336;2023-03-03T11:01:24;94085.22;;;8.69;71.58
1472;BME280;963;42.644;23.336;2023-03-03T11:06:57;94086.88;;;8.58;70.12
1472;BME280;963;42.644;23.336;2023-03-03T11:12:24;94070.94;;;8.66;69.66
1472;BME280;963;42.644;23.336;2023-03-03T11:20:27;94050.31;;;8.65;70.99
1472;BME280;963;42.644;23.336;2023-03-03T11:25:45;94047.63;;;8.61;69.87
1472;BME280;963;42.644;23.336;2023-03-03T11:28:21;94058.69;;;8.55;70.44
1472;BME280;963;42.644;23.336;2023-03-03T11:31:35;94090.31;;;8.62;70.53
1472;BME280;963;42.644;23.336;2023-03-03T11:36:27;94055.53;;;8.45;71.71
1472;BME280;963;42.644;23.336;2023-03-03T11:39:15;94063.53;;;8.53;71.41
1472;BME280;963;42.644;23.336;2023-03-03T11:44:29;94054.72;;;8.41;71.14
1472;BME280;963;42.644;23.336;2023-03-03T11:46:59;94059.06;;;8.53;70.96
1472;BME280;963;42.644;23.336;2023-03-03T11:49:49;94055.31;;;8.54;71.20
1472;BME280;963;42.644;23.336;2023-03-03T11:52:21;94052.97;;;8.49;71.11
1472;BME280;963;42.644;23.336;2023-03-03T11:54:59;94052.22;;;8.49;70.88
1472;BME280;963;42.644;23.336;2023-03-03T11:57:38;94048.09;;;8.48;71.25
1472;BME280;963;42.644;23.336;2023-03-03T12:00:27;94046.84;;;8.41;71.92
1472;BME280;963;42.644;23.336;2023-03-03T12:14:16;94045.59;;;8.55;73.68
1472;BME280;963;42.644;23.336;2023-03-03T12:22:12;94050.28;;;8.84;70.94
1472;BME280;963;42.644;23.336;2023-03-03T12:27:51;94044.50;;;8.75;73.17
1472;BME280;963;42.644;23.336;2023-03-03T12:36:02;94054.03;;;8.64;72.88
1472;BME280;963;42.644;23.336;2023-03-03T12:39:15;94061.75;;;8.57;73.45
1472;BME280;963;42.644;23.336;2023-03-03T12:41:28;94058.59;;;8.67;72.41
1472;BME280;963;42.644;23.336;2023-03-03T12:46:43;94059.16;;;8.57;73.40
1472;BME280;963;42.644;23.336;2023-03-03T12:49:09;94061.91;;;8.64;74.05
1472;BME280;963;42.644;23.336;2023-03-03T12:57:39;94048.50;;;8.69;73.55
1472;BME280;963;42.644;23.336;2023-03-03T13:10:44;94039.00;;;8.61;75.19
1472;BME280;963;42.644;23.336;2023-03-03T13:16:03;94048.09;;;8.67;75.77
1472;BME280;963;42.644;23.336;2023-03-03T13:23:52;94030.84;;;8.66;76.95
1472;BME280;963;42.644;23.336;2023-03-03T13:26:25;94031.53;;;8.63;76.37
1472;BME280;963;42.644;23.336;2023-03-03T13:32:17;94036.50;;;8.49;77.20
1472;BME280;963;42.644;23.336;2023-03-03T13:35:08;94038.56;;;8.39;77.81
1472;BME280;963;42.644;23.336;2023-03-03T13:40:15;94024.22;;;8.33;77.09
1472;BME280;963;42.644;23.336;2023-03-03T13:42:52;94036.50;;;8.49;76.58
1472;BME280;963;42.644;23.336;2023-03-03T13:45:43;94047.75;;;8.49;76.51
1472;BME280;963;42.644;23.336;2023-03-03T13:56:46;94034.78;;;8.37;77.20
1472;BME280;963;42.644;23.336;2023-03-03T14:05:37;94025.13;;;8.41;76.77
1472;BME280;963;42.644;23.336;2023-03-03T14:13:26;94034.97;;;8.48;77.10
1472;BME280;963;42.644;23.336;2023-03-03T14:16:12;94020.22;;;8.39;76.94
1472;BME280;963;42.644;23.336;2023-03-03T14:18:56;94031.94;;;8.45;76.80
1472;BME280;963;42.644;23.336;2023-03-03T14:21:28;94024.38;;;8.40;76.73
1472;BME280;963;42.644;23.336;2023-03-03T14:24:08;94037.13;;;8.42;76.62
1472;BME280;963;42.644;23.336;2023-03-03T14:26:51;94018.38;;;8.40;77.58
1472;BME280;963;42.644;23.336;2023-03-03T14:31:52;94041.59;;;8.41;78.33
1472;BME280;963;42.644;23.336;2023-03-03T14:34:36;94033.78;;;8.26;78.34
1472;BME280;963;42.644;23.336;2023-03-03T14:45:37;94018.72;;;8.38;77.07
1472;BME280;963;42.644;23.336;2023-03-03T14:48:19;94032.09;;;8.33;76.14
1472;BME280;963;42.644;23.336;2023-03-03T14:50:59;94014.56;;;8.37;76.73
1472;BME280;963;42.644;23.336;2023-03-03T14:53:43;94016.84;;;8.39;76.83
1472;BME280;963;42.644;23.336;2023-03-03T14:56:32;94019.94;;;8.44;76.53
1472;BME280;963;42.644;23.336;2023-03-03T14:59:17;94019.94;;;8.44;76.97
1472;BME280;963;42.644;23.336;2023-03-03T15:01:44;94020.50;;;8.34;77.21
1472;BME280;963;42.644;23.336;2023-03-03T15:06:44;94007.06;;;8.36;78.15
1472;BME280;963;42.644;23.336;2023-03-03T15:11:50;94030.81;;;8.27;78.75
1472;BME280;963;42.644;23.336;2023-03-03T15:14:17;94020.56;;;8.38;78.56
1472;BME280;963;42.644;23.336;2023-03-03T15:16:44;94020.22;;;8.39;77.73
1472;BME280;963;42.644;23.336;2023-03-03T15:22:08;94006.81;;;8.25;78.46
1472;BME280;963;42.644;23.336;2023-03-03T15:24:43;94024.06;;;8.26;78.38
1472;BME280;963;42.644;23.336;2023-03-03T15:27:20;94014.97;;;8.20;78.83
1472;BME280;963;42.644;23.336;2023-03-03T15:32:41;94030.69;;;8.20;79.26
1472;BME280;963;42.644;23.336;2023-03-03T15:35:51;94019.22;;;8.09;79.14
1472;BME280;963;42.644;23.336;2023-03-03T15:40:48;94015.34;;;7.68;80.84
1472;BME280;963;42.644;23.336;2023-03-03T15:54:36;94029.09;;;7.80;80.91
1472;BME280;963;42.644;23.336;2023-03-03T16:02:42;94028.41;;;7.83;80.64
1472;BME280;963;42.644;23.336;2023-03-03T16:05:18;94040.69;;;7.99;80.54
1472;BME280;963;42.644;23.336;2023-03-03T16:18:51;94046.22;;;8.13;78.57
1472;BME280;963;42.644;23.336;2023-03-03T16:21:36;94052.91;;;8.10;79.07
1472;BME280;963;42.644;23.336;2023-03-03T16:26:53;94057.13;;;8.15;79.18
1472;BME280;963;42.644;23.336;2023-03-03T16:35:00;94056.88;;;8.20;78.72
1472;BME280;963;42.644;23.336;2023-03-03T16:38:27;94080.94;;;8.26;78.79
1472;BME280;963;42.644;23.336;2023-03-03T16:40:44;94052.06;;;8.22;78.49
1472;BME280;963;42.644;23.336;2023-03-03T16:46:29;94072.75;;;8.27;79.30
1472;BME280;963;42.644;23.336;2023-03-03T16:49:08;94081.72;;;8.26;79.34
1472;BME280;963;42.644;23.336;2023-03-03T16:51:50;94079.78;;;8.23;78.52
1472;BME280;963;42.644;23.336;2023-03-03T16:54:33;94086.25;;;8.29;78.31
1472;BME280;963;42.644;23.336;2023-03-03T17:00:13;94089.75;;;8.33;78.36
1472;BME280;963;42.644;23.336;2023-03-03T17:02:57;94093.88;;;8.34;78.72
1472;BME280;963;42.644;23.336;2023-03-03T17:25:31;94101.03;;;7.87;79.72
1472;BME280;963;42.644;23.336;2023-03-03T17:33:56;94111.19;;;7.88;81.32
1472;BME280;963;42.644;23.336;2023-03-03T17:36:16;94116.91;;;7.94;80.89
1472;BME280;963;42.644;23.336;2023-03-03T17:58:05;94138.53;;;7.91;81.84
1472;BME280;963;42.644;23.336;2023-03-03T18:00:44;94138.03;;;8.01;80.98
1472;BME280;963;42.644;23.336;2023-03-03T18:22:19;94149.44;;;7.93;78.83
1472;BME280;963;42.644;23.336;2023-03-03T18:35:45;94165.88;;;8.09;78.67
1472;BME280;963;42.644;23.336;2023-03-03T18:49:08;94165.47;;;7.75;79.66
1472;BME280;963;42.644;23.336;2023-03-03T18:54:02;94202.19;;;7.79;79.80
1472;BME280;963;42.644;23.336;2023-03-03T18:59:39;94188.56;;;7.86;79.25
1472;BME280;963;42.644;23.336;2023-03-03T19:04:47;94191.66;;;7.75;79.10
1472;BME280;963;42.644;23.336;2023-03-03T19:12:53;94205.59;;;7.79;79.84
1472;BME280;963;42.644;23.336;2023-03-03T19:18:19;94200.78;;;7.81;79.30
1472;BME280;963;42.644;23.336;2023-03-03T19:23:20;94202.97;;;7.79;78.95
1472;BME280;963;42.644;23.336;2023-03-03T19:26:19;94209.59;;;7.89;79.00
1472;BME280;963;42.644;23.336;2023-03-03T19:31:38;94212.13;;;7.86;78.62
1472;BME280;963;42.644;23.336;2023-03-03T19:47:43;94189.13;;;8.26;79.71
1472;BME280;963;42.644;23.336;2023-03-03T20:00:46;94188.09;;;8.31;76.80
1472;BME280;963;42.644;23.336;2023-03-03T20:03:43;94192.25;;;8.32;76.86
1472;BME280;963;42.644;23.336;2023-03-03T20:17:27;94198.50;;;8.27;77.48
1472;BME280;963;42.644;23.336;2023-03-03T20:25:14;94185.47;;;8.15;78.49
1472;BME280;963;42.644;23.336;2023-03-03T20:38:15;94185.81;;;8.29;77.47
1472;BME280;963;42.644;23.336;2023-03-03T20:41:04;94189.97;;;8.30;78.56
1472;BME280;963;42.644;23.336;2023-03-03T20:46:26;94178.22;;;8.24;77.41
1472;BME280;963;42.644;23.336;2023-03-03T20:51:56;94171.38;;;8.20;77.73
1472;BME280;963;42.644;23.336;2023-03-03T20:59:58;94164.44;;;8.27;77.85